sensor_id;sensor_type;location;lat;lon;timestamp;P1;durP1;ratioP1;P2;durP2;ratioP2
13408;SDS011;6775;49.574;11.170;2023-02-28T00:01:40;2.10;;;1.90;;
13408;SDS011;6775;49.574;11.170;2023-02-28T00:04:08;2.83;;;1.63;;
13408;SDS011;6775;49.574;11.170;2023-02-28T00:06:36;2.20;;;2.00;;
13408;SDS011;6775;49.574;11.170;2023-02-28T00:09:04;2.27;;;1.90;;
13408;SDS011;6775;49.574;11.170;2023-02-28T00:11:32;2.07;;;1.90;;
13408;SDS011;6775;49.574;11.170;2023-02-28T00:14:01;3.27;;;2.17;;
13408;SDS011;6775;49.574;11.170;2023-02-28T00:16:29;3.80;;;2.20;;
13408;SDS011;6775;49.574;11.170;2023-02-28T00:18:56;2.40;;;1.87;;
13408;SDS011;6775;49.574;11.170;2023-02-28T00:21:24;3.60;;;2.70;;
13408;SDS011;6775;49.574;11.170;2023-02-28T00:23:53;3.20;;;2.13;;
13408;SDS011;6775;49.574;11.170;2023-02-28T00:26:20;2.90;;;2.40;;
13408;SDS011;6775;49.574;11.170;2023-02-28T00:28:48;2.23;;;2.00;;
13408;SDS011;6775;49.574;11.170;2023-02-28T00:31:20;2.93;;;1.90;;
13408;SDS011;6775;49.574;11.170;2023-02-28T00:33:47;4.67;;;2.47;;
13408;SDS011;6775;49.574;11.170;2023-02-28T00:36:17;2.70;;;2.40;;
13408;SDS011;6775;49.574;11.170;2023-02-28T00:38:44;3.37;;;2.13;;
13408;SDS011;6775;49.574;11.170;2023-02-28T00:41:12;3.90;;;2.20;;
13408;SDS011;6775;49.574;11.170;2023-02-28T00:43:40;2.47;;;2.17;;
13408;SDS011;6775;49.574;11.170;2023-02-28T00:46:08;4.90;;;2.70;;
13408;SDS011;6775;49.574;11.170;2023-02-28T00:48:38;5.00;;;2.53;;
13408;SDS011;6775;49.574;11.170;2023-02-28T00:51:05;3.63;;;2.17;;
13408;SDS011;6775;49.574;11.170;2023-02-28T00:53:33;2.43;;;2.20;;
13408;SDS011;6775;49.574;11.170;2023-02-28T00:56:01;2.83;;;2.60;;
13408;SDS011;6775;49.574;11.170;2023-02-28T00:58:29;4.93;;;3.07;;
13408;SDS011;6775;49.574;11.170;2023-02-28T01:00:58;2.73;;;2.10;;
13408;SDS011;6775;49.574;11.170;2023-02-28T01:03:26;3.63;;;2.27;;
13408;SDS011;6775;49.574;11.170;2023-02-28T01:05:55;3.43;;;2.10;;
13408;SDS011;6775;49.574;11.170;2023-02-28T01:08:23;3.03;;;2.33;;
13408;SDS011;6775;49.574;11.170;2023-02-28T01:10:52;5.00;;;2.30;;
13408;SDS011;6775;49.574;11.170;2023-02-28T01:13:20;3.13;;;2.10;;
13408;SDS011;6775;49.574;11.170;2023-02-28T01:15:49;3.30;;;2.53;;
13408;SDS011;6775;49.574;11.170;2023-02-28T01:18:20;2.57;;;2.37;;
13408;SDS011;6775;49.574;11.170;2023-02-28T01:20:48;6.27;;;2.60;;
13408;SDS011;6775;49.574;11.170;2023-02-28T01:23:19;5.13;;;2.43;;
13408;SDS011;6775;49.574;11.170;2023-02-28T01:25:49;2.60;;;2.33;;
13408;SDS011;6775;49.574;11.170;2023-02-28T01:28:17;2.73;;;2.43;;
13408;SDS011;6775;49.574;11.170;2023-02-28T01:30:47;2.90;;;2.40;;
13408;SDS011;6775;49.574;11.170;2023-02-28T01:33:15;2.63;;;2.17;;
13408;SDS011;6775;49.574;11.170;2023-02-28T01:35:43;3.10;;;2.40;;
13408;SDS011;6775;49.574;11.170;2023-02-28T01:38:11;3.10;;;2.10;;
13408;SDS011;6775;49.574;11.170;2023-02-28T01:40:49;3.77;;;2.40;;
13408;SDS011;6775;49.574;11.170;2023-02-28T01:43:20;3.07;;;2.43;;
13408;SDS011;6775;49.574;11.170;2023-02-28T01:45:49;5.07;;;3.17;;
13408;SDS011;6775;49.574;11.170;2023-02-28T01:48:17;3.60;;;2.30;;
13408;SDS011;6775;49.574;11.170;2023-02-28T01:50:47;4.17;;;2.30;;
13408;SDS011;6775;49.574;11.170;2023-02-28T01:53:16;3.07;;;2.23;;
13408;SDS011;6775;49.574;11.170;2023-02-28T01:55:47;3.83;;;2.33;;
13408;SDS011;6775;49.574;11.170;2023-02-28T01:58:19;3.90;;;2.33;;
13408;SDS011;6775;49.574;11.170;2023-02-28T02:00:47;3.57;;;2.53;;
13408;SDS011;6775;49.574;11.170;2023-02-28T02:03:16;3.33;;;2.33;;
13408;SDS011;6775;49.574;11.170;2023-02-28T02:05:46;3.87;;;2.43;;
13408;SDS011;6775;49.574;11.170;2023-02-28T02:08:16;2.63;;;2.23;;
13408;SDS011;6775;49.574;11.170;2023-02-28T02:10:46;2.60;;;2.40;;
13408;SDS011;6775;49.574;11.170;2023-02-28T02:13:26;3.17;;;2.63;;
13408;SDS011;6775;49.574;11.170;2023-02-28T02:16:28;4.37;;;2.60;;
13408;SDS011;6775;49.574;11.170;2023-02-28T02:19:14;3.27;;;2.57;;
13408;SDS011;6775;49.574;11.170;2023-02-28T02:24:59;6.00;;;2.90;;
13408;SDS011;6775;49.574;11.170;2023-02-28T02:27:41;3.57;;;2.80;;
13408;SDS011;6775;49.574;11.170;2023-02-28T02:30:24;3.47;;;2.67;;
13408;SDS011;6775;49.574;11.170;2023-02-28T02:33:13;5.10;;;2.70;;
13408;SDS011;6775;49.574;11.170;2023-02-28T02:35:59;4.80;;;2.93;;
13408;SDS011;6775;49.574;11.170;2023-02-28T02:38:32;5.10;;;2.50;;
13408;SDS011;6775;49.574;11.170;2023-02-28T02:41:04;3.83;;;2.50;;
13408;SDS011;6775;49.574;11.170;2023-02-28T02:43:40;4.10;;;2.93;;
13408;SDS011;6775;49.574;11.170;2023-02-28T02:46:17;4.17;;;2.90;;
13408;SDS011;6775;49.574;11.170;2023-02-28T02:48:48;4.67;;;2.53;;
13408;SDS011;6775;49.574;11.170;2023-02-28T02:51:21;3.93;;;2.43;;
13408;SDS011;6775;49.574;11.170;2023-02-28T02:53:52;3.03;;;2.60;;
13408;SDS011;6775;49.574;11.170;2023-02-28T02:56:26;2.50;;;2.30;;
13408;SDS011;6775;49.574;11.170;2023-02-28T02:58:58;3.20;;;2.57;;
13408;SDS011;6775;49.574;11.170;2023-02-28T03:01:29;4.30;;;2.67;;
13408;SDS011;6775;49.574;11.170;2023-02-28T03:03:59;3.67;;;2.37;;
13408;SDS011;6775;49.574;11.170;2023-02-28T03:06:31;3.17;;;2.27;;
13408;SDS011;6775;49.574;11.170;2023-02-28T03:08:59;3.47;;;2.63;;
13408;SDS011;6775;49.574;11.170;2023-02-28T03:11:27;4.00;;;3.03;;
13408;SDS011;6775;49.574;11.170;2023-02-28T03:19:54;5.33;;;2.80;;
13408;SDS011;6775;49.574;11.170;2023-02-28T03:25:27;4.70;;;2.70;;
13408;SDS011;6775;49.574;11.170;2023-02-28T03:28:00;3.73;;;3.00;;
13408;SDS011;6775;49.574;11.170;2023-02-28T03:30:35;4.20;;;2.97;;
13408;SDS011;6775;49.574;11.170;2023-02-28T03:33:09;4.07;;;2.90;;
13408;SDS011;6775;49.574;11.170;2023-02-28T03:35:42;4.60;;;3.10;;
13408;SDS011;6775;49.574;11.170;2023-02-28T03:38:18;5.37;;;3.40;;
13408;SDS011;6775;49.574;11.170;2023-02-28T03:40:50;6.40;;;3.50;;
13408;SDS011;6775;49.574;11.170;2023-02-28T03:43:22;3.27;;;2.97;;
13408;SDS011;6775;49.574;11.170;2023-02-28T03:45:54;4.50;;;3.10;;
13408;SDS011;6775;49.574;11.170;2023-02-28T03:48:23;4.43;;;3.20;;
13408;SDS011;6775;49.574;11.170;2023-02-28T03:50:57;4.80;;;3.30;;
13408;SDS011;6775;49.574;11.170;2023-02-28T03:53:29;3.83;;;3.17;;
13408;SDS011;6775;49.574;11.170;2023-02-28T03:56:01;4.73;;;3.60;;
13408;SDS011;6775;49.574;11.170;2023-02-28T03:58:35;5.53;;;3.30;;
13408;SDS011;6775;49.574;11.170;2023-02-28T04:01:08;5.20;;;3.13;;
13408;SDS011;6775;49.574;11.170;2023-02-28T04:03:40;4.97;;;3.47;;
13408;SDS011;6775;49.574;11.170;2023-02-28T04:06:08;4.90;;;3.43;;
13408;SDS011;6775;49.574;11.170;2023-02-28T04:08:44;5.73;;;3.70;;
13408;SDS011;6775;49.574;11.170;2023-02-28T04:11:15;4.20;;;3.27;;
13408;SDS011;6775;49.574;11.170;2023-02-28T04:13:46;3.83;;;3.27;;
13408;SDS011;6775;49.574;11.170;2023-02-28T04:16:14;4.77;;;2.97;;
13408;SDS011;6775;49.574;11.170;2023-02-28T04:18:58;4.00;;;3.07;;
13408;SDS011;6775;49.574;11.170;2023-02-28T04:21:29;5.03;;;3.20;;
13408;SDS011;6775;49.574;11.170;2023-02-28T04:23:59;4.73;;;3.57;;
13408;SDS011;6775;49.574;11.170;2023-02-28T04:26:28;5.47;;;3.80;;
13408;SDS011;6775;49.574;11.170;2023-02-28T04:28:57;5.87;;;4.00;;
13408;SDS011;6775;49.574;11.170;2023-02-28T04:31:25;6.27;;;4.10;;
13408;SDS011;6775;49.574;11.170;2023-02-28T04:33:54;8.13;;;4.30;;
13408;SDS011;6775;49.574;11.170;2023-02-28T04:36:22;5.77;;;3.53;;
13408;SDS011;6775;49.574;11.170;2023-02-28T04:38:50;5.23;;;3.70;;
13408;SDS011;6775;49.574;11.170;2023-02-28T04:41:20;4.10;;;3.70;;
13408;SDS011;6775;49.574;11.170;2023-02-28T04:43:49;4.27;;;3.30;;
13408;SDS011;6775;49.574;11.170;2023-02-28T04:46:18;5.40;;;3.30;;
13408;SDS011;6775;49.574;11.170;2023-02-28T04:48:46;5.50;;;3.90;;
13408;SDS011;6775;49.574;11.170;2023-02-28T04:51:15;7.07;;;4.37;;
13408;SDS011;6775;49.574;11.170;2023-02-28T04:53:45;5.47;;;3.90;;
13408;SDS011;6775;49.574;11.170;2023-02-28T04:56:15;4.87;;;3.33;;
13408;SDS011;6775;49.574;11.170;2023-02-28T04:58:45;6.53;;;4.20;;
13408;SDS011;6775;49.574;11.170;2023-02-28T05:01:18;6.83;;;3.60;;
13408;SDS011;6775;49.574;11.170;2023-02-28T05:03:48;6.33;;;3.80;;
13408;SDS011;6775;49.574;11.170;2023-02-28T05:06:17;4.87;;;3.93;;
13408;SDS011;6775;49.574;11.170;2023-02-28T05:08:46;5.10;;;3.60;;
13408;SDS011;6775;49.574;11.170;2023-02-28T05:11:16;5.23;;;3.50;;
13408;SDS011;6775;49.574;11.170;2023-02-28T05:13:46;6.53;;;4.10;;
13408;SDS011;6775;49.574;11.170;2023-02-28T05:16:15;5.53;;;3.63;;
13408;SDS011;6775;49.574;11.170;2023-02-28T05:18:44;5.60;;;3.67;;
13408;SDS011;6775;49.574;11.170;2023-02-28T05:21:19;7.37;;;4.00;;
13408;SDS011;6775;49.574;11.170;2023-02-28T05:23:54;5.77;;;3.73;;
13408;SDS011;6775;49.574;11.170;2023-02-28T05:26:23;5.90;;;4.20;;
13408;SDS011;6775;49.574;11.170;2023-02-28T05:28:53;5.43;;;3.53;;
13408;SDS011;6775;49.574;11.170;2023-02-28T05:31:21;5.30;;;3.63;;
13408;SDS011;6775;49.574;11.170;2023-02-28T05:33:49;5.10;;;3.80;;
13408;SDS011;6775;49.574;11.170;2023-02-28T05:36:17;7.20;;;3.93;;
13408;SDS011;6775;49.574;11.170;2023-02-28T05:38:46;8.57;;;4.93;;
13408;SDS011;6775;49.574;11.170;2023-02-28T05:41:15;5.10;;;4.10;;
13408;SDS011;6775;49.574;11.170;2023-02-28T05:43:45;5.03;;;3.97;;
13408;SDS011;6775;49.574;11.170;2023-02-28T05:46:15;8.47;;;4.67;;
13408;SDS011;6775;49.574;11.170;2023-02-28T05:48:45;7.10;;;4.63;;
13408;SDS011;6775;49.574;11.170;2023-02-28T05:51:14;4.47;;;4.07;;
13408;SDS011;6775;49.574;11.170;2023-02-28T05:53:42;6.87;;;4.80;;
13408;SDS011;6775;49.574;11.170;2023-02-28T05:56:11;6.77;;;4.73;;
13408;SDS011;6775;49.574;11.170;2023-02-28T05:58:38;4.93;;;4.20;;
13408;SDS011;6775;49.574;11.170;2023-02-28T06:01:21;5.97;;;3.97;;
13408;SDS011;6775;49.574;11.170;2023-02-28T06:03:50;7.20;;;4.60;;
13408;SDS011;6775;49.574;11.170;2023-02-28T06:06:20;5.53;;;3.77;;
13408;SDS011;6775;49.574;11.170;2023-02-28T06:08:48;5.83;;;3.97;;
13408;SDS011;6775;49.574;11.170;2023-02-28T06:11:16;10.73;;;4.40;;
13408;SDS011;6775;49.574;11.170;2023-02-28T06:13:45;4.67;;;4.00;;
13408;SDS011;6775;49.574;11.170;2023-02-28T06:16:13;6.23;;;4.60;;
13408;SDS011;6775;49.574;11.170;2023-02-28T06:18:43;5.83;;;4.27;;
13408;SDS011;6775;49.574;11.170;2023-02-28T06:21:11;6.60;;;4.03;;
13408;SDS011;6775;49.574;11.170;2023-02-28T06:23:39;5.57;;;3.83;;
13408;SDS011;6775;49.574;11.170;2023-02-28T06:26:07;6.17;;;4.33;;
13408;SDS011;6775;49.574;11.170;2023-02-28T06:28:35;8.13;;;4.57;;
13408;SDS011;6775;49.574;11.170;2023-02-28T06:31:05;6.23;;;4.57;;
13408;SDS011;6775;49.574;11.170;2023-02-28T06:33:34;7.83;;;4.93;;
13408;SDS011;6775;49.574;11.170;2023-02-28T06:36:05;5.97;;;4.10;;
13408;SDS011;6775;49.574;11.170;2023-02-28T06:38:33;7.60;;;4.87;;
13408;SDS011;6775;49.574;11.170;2023-02-28T06:41:02;5.40;;;3.87;;
13408;SDS011;6775;49.574;11.170;2023-02-28T06:43:31;6.40;;;4.80;;
13408;SDS011;6775;49.574;11.170;2023-02-28T06:46:03;7.10;;;4.80;;
13408;SDS011;6775;49.574;11.170;2023-02-28T06:48:32;7.17;;;4.17;;
13408;SDS011;6775;49.574;11.170;2023-02-28T06:51:02;7.37;;;4.97;;
13408;SDS011;6775;49.574;11.170;2023-02-28T06:53:32;7.43;;;4.60;;
13408;SDS011;6775;49.574;11.170;2023-02-28T06:56:03;8.47;;;4.70;;
13408;SDS011;6775;49.574;11.170;2023-02-28T06:58:32;8.10;;;5.07;;
13408;SDS011;6775;49.574;11.170;2023-02-28T07:01:01;7.77;;;4.87;;
13408;SDS011;6775;49.574;11.170;2023-02-28T07:03:29;7.43;;;5.33;;
13408;SDS011;6775;49.574;11.170;2023-02-28T07:05:59;7.77;;;5.07;;
13408;SDS011;6775;49.574;11.170;2023-02-28T07:08:29;9.07;;;5.80;;
13408;SDS011;6775;49.574;11.170;2023-02-28T07:10:57;5.93;;;4.97;;
13408;SDS011;6775;49.574;11.170;2023-02-28T07:13:25;7.23;;;5.30;;
13408;SDS011;6775;49.574;11.170;2023-02-28T07:15:54;9.47;;;5.13;;
13408;SDS011;6775;49.574;11.170;2023-02-28T07:18:22;8.20;;;4.87;;
13408;SDS011;6775;49.574;11.170;2023-02-28T07:20:51;6.87;;;4.83;;
13408;SDS011;6775;49.574;11.170;2023-02-28T07:23:20;6.37;;;4.87;;
13408;SDS011;6775;49.574;11.170;2023-02-28T07:25:50;9.07;;;5.13;;
13408;SDS011;6775;49.574;11.170;2023-02-28T07:28:18;8.30;;;5.30;;
13408;SDS011;6775;49.574;11.170;2023-02-28T07:30:46;7.13;;;5.20;;
13408;SDS011;6775;49.574;11.170;2023-02-28T07:33:14;6.93;;;5.03;;
13408;SDS011;6775;49.574;11.170;2023-02-28T07:35:42;8.13;;;4.37;;
13408;SDS011;6775;49.574;11.170;2023-02-28T07:38:10;7.07;;;5.40;;
13408;SDS011;6775;49.574;11.170;2023-02-28T07:40:39;6.17;;;4.90;;
13408;SDS011;6775;49.574;11.170;2023-02-28T07:43:08;7.03;;;4.63;;
13408;SDS011;6775;49.574;11.170;2023-02-28T07:45:36;5.87;;;4.57;;
13408;SDS011;6775;49.574;11.170;2023-02-28T07:48:04;7.17;;;5.30;;
13408;SDS011;6775;49.574;11.170;2023-02-28T07:50:32;6.80;;;4.80;;
13408;SDS011;6775;49.574;11.170;2023-02-28T07:53:00;6.30;;;5.17;;
13408;SDS011;6775;49.574;11.170;2023-02-28T07:55:28;6.10;;;4.47;;
13408;SDS011;6775;49.574;11.170;2023-02-28T07:57:56;6.73;;;5.07;;
13408;SDS011;6775;49.574;11.170;2023-02-28T08:00:25;8.10;;;5.43;;
13408;SDS011;6775;49.574;11.170;2023-02-28T08:02:55;7.07;;;5.37;;
13408;SDS011;6775;49.574;11.170;2023-02-28T08:05:22;8.60;;;4.83;;
13408;SDS011;6775;49.574;11.170;2023-02-28T08:07:50;9.60;;;5.57;;
13408;SDS011;6775;49.574;11.170;2023-02-28T08:10:19;7.27;;;4.57;;
13408;SDS011;6775;49.574;11.170;2023-02-28T08:12:47;7.53;;;5.00;;
13408;SDS011;6775;49.574;11.170;2023-02-28T08:15:15;7.43;;;4.73;;
13408;SDS011;6775;49.574;11.170;2023-02-28T08:17:44;9.37;;;4.90;;
13408;SDS011;6775;49.574;11.170;2023-02-28T08:20:12;8.60;;;5.70;;
13408;SDS011;6775;49.574;11.170;2023-02-28T08:22:39;7.70;;;4.73;;
13408;SDS011;6775;49.574;11.170;2023-02-28T08:25:11;6.53;;;4.80;;
13408;SDS011;6775;49.574;11.170;2023-02-28T08:27:38;9.30;;;5.13;;
13408;SDS011;6775;49.574;11.170;2023-02-28T08:30:07;10.00;;;5.67;;
13408;SDS011;6775;49.574;11.170;2023-02-28T08:32:37;6.50;;;5.00;;
13408;SDS011;6775;49.574;11.170;2023-02-28T08:35:07;6.77;;;5.33;;
13408;SDS011;6775;49.574;11.170;2023-02-28T08:37:36;6.07;;;5.20;;
13408;SDS011;6775;49.574;11.170;2023-02-28T08:40:04;5.87;;;5.10;;
13408;SDS011;6775;49.574;11.170;2023-02-28T08:42:33;6.57;;;4.50;;
13408;SDS011;6775;49.574;11.170;2023-02-28T08:45:01;8.03;;;5.43;;
13408;SDS011;6775;49.574;11.170;2023-02-28T08:47:29;8.53;;;5.50;;
13408;SDS011;6775;49.574;11.170;2023-02-28T08:49:57;5.67;;;4.87;;
13408;SDS011;6775;49.574;11.170;2023-02-28T08:52:26;6.67;;;4.83;;
13408;SDS011;6775;49.574;11.170;2023-02-28T08:54:54;7.60;;;4.40;;
13408;SDS011;6775;49.574;11.170;2023-02-28T08:57:25;6.23;;;4.90;;
13408;SDS011;6775;49.574;11.170;2023-02-28T08:59:53;7.13;;;4.60;;
13408;SDS011;6775;49.574;11.170;2023-02-28T09:02:21;6.20;;;4.77;;
13408;SDS011;6775;49.574;11.170;2023-02-28T09:04:49;5.83;;;5.07;;
13408;SDS011;6775;49.574;11.170;2023-02-28T09:07:16;8.23;;;4.77;;
13408;SDS011;6775;49.574;11.170;2023-02-28T09:09:46;8.87;;;5.23;;
13408;SDS011;6775;49.574;11.170;2023-02-28T09:12:21;5.67;;;4.83;;
13408;SDS011;6775;49.574;11.170;2023-02-28T09:14:49;6.10;;;4.67;;
13408;SDS011;6775;49.574;11.170;2023-02-28T09:17:17;6.27;;;4.83;;
13408;SDS011;6775;49.574;11.170;2023-02-28T09:19:47;6.20;;;5.00;;
13408;SDS011;6775;49.574;11.170;2023-02-28T09:22:15;7.40;;;5.23;;
13408;SDS011;6775;49.574;11.170;2023-02-28T09:24:43;6.17;;;4.97;;
13408;SDS011;6775;49.574;11.170;2023-02-28T09:27:12;5.77;;;4.77;;
13408;SDS011;6775;49.574;11.170;2023-02-28T09:29:40;5.70;;;4.73;;
13408;SDS011;6775;49.574;11.170;2023-02-28T09:32:08;6.80;;;4.93;;
13408;SDS011;6775;49.574;11.170;2023-02-28T09:34:35;5.50;;;4.70;;
13408;SDS011;6775;49.574;11.170;2023-02-28T09:37:04;5.40;;;4.63;;
13408;SDS011;6775;49.574;11.170;2023-02-28T09:39:32;5.17;;;3.97;;
13408;SDS011;6775;49.574;11.170;2023-02-28T09:41:59;6.73;;;4.70;;
13408;SDS011;6775;49.574;11.170;2023-02-28T09:44:33;5.60;;;4.70;;
13408;SDS011;6775;49.574;11.170;2023-02-28T09:47:05;5.40;;;4.17;;
13408;SDS011;6775;49.574;11.170;2023-02-28T09:49:41;5.57;;;4.07;;
13408;SDS011;6775;49.574;11.170;2023-02-28T09:52:13;5.43;;;4.10;;
13408;SDS011;6775;49.574;11.170;2023-02-28T09:54:45;4.90;;;4.37;;
13408;SDS011;6775;49.574;11.170;2023-02-28T09:57:15;6.20;;;4.33;;
13408;SDS011;6775;49.574;11.170;2023-02-28T10:00:05;5.47;;;4.07;;
13408;SDS011;6775;49.574;11.170;2023-02-28T10:02:46;5.03;;;4.40;;
13408;SDS011;6775;49.574;11.170;2023-02-28T10:05:24;5.33;;;4.20;;
13408;SDS011;6775;49.574;11.170;2023-02-28T10:08:00;6.80;;;4.60;;
13408;SDS011;6775;49.574;11.170;2023-02-28T10:10:33;5.77;;;4.10;;
13408;SDS011;6775;49.574;11.170;2023-02-28T10:13:11;4.10;;;3.70;;
13408;SDS011;6775;49.574;11.170;2023-02-28T10:15:45;5.03;;;3.77;;
13408;SDS011;6775;49.574;11.170;2023-02-28T10:18:21;5.40;;;4.23;;
13408;SDS011;6775;49.574;11.170;2023-02-28T10:20:52;4.70;;;3.80;;
13408;SDS011;6775;49.574;11.170;2023-02-28T10:23:23;5.23;;;4.00;;
13408;SDS011;6775;49.574;11.170;2023-02-28T10:25:54;4.27;;;3.63;;
13408;SDS011;6775;49.574;11.170;2023-02-28T10:28:24;4.40;;;4.00;;
13408;SDS011;6775;49.574;11.170;2023-02-28T10:30:55;5.67;;;4.00;;
13408;SDS011;6775;49.574;11.170;2023-02-28T10:33:25;4.20;;;3.80;;
13408;SDS011;6775;49.574;11.170;2023-02-28T10:35:57;5.27;;;4.10;;
13408;SDS011;6775;49.574;11.170;2023-02-28T10:38:26;3.57;;;3.27;;
13408;SDS011;6775;49.574;11.170;2023-02-28T10:41:03;4.90;;;3.70;;
13408;SDS011;6775;49.574;11.170;2023-02-28T10:43:32;4.77;;;4.20;;
13408;SDS011;6775;49.574;11.170;2023-02-28T10:46:03;3.70;;;3.40;;
13408;SDS011;6775;49.574;11.170;2023-02-28T10:48:38;4.40;;;4.00;;
13408;SDS011;6775;49.574;11.170;2023-02-28T10:51:10;5.60;;;4.30;;
13408;SDS011;6775;49.574;11.170;2023-02-28T10:53:40;4.87;;;4.00;;
13408;SDS011;6775;49.574;11.170;2023-02-28T10:56:27;3.60;;;3.30;;
13408;SDS011;6775;49.574;11.170;2023-02-28T10:58:56;4.63;;;4.00;;
13408;SDS011;6775;49.574;11.170;2023-02-28T11:01:35;4.30;;;3.80;;
13408;SDS011;6775;49.574;11.170;2023-02-28T11:04:16;4.10;;;3.70;;
13408;SDS011;6775;49.574;11.170;2023-02-28T11:06:45;4.13;;;3.37;;
13408;SDS011;6775;49.574;11.170;2023-02-28T11:09:16;5.03;;;3.80;;
13408;SDS011;6775;49.574;11.170;2023-02-28T11:11:48;4.43;;;3.97;;
13408;SDS011;6775;49.574;11.170;2023-02-28T11:14:19;4.60;;;3.90;;
13408;SDS011;6775;49.574;11.170;2023-02-28T11:16:50;4.20;;;3.80;;
13408;SDS011;6775;49.574;11.170;2023-02-28T11:19:20;5.27;;;3.93;;
13408;SDS011;6775;49.574;11.170;2023-02-28T11:21:52;4.50;;;4.10;;
13408;SDS011;6775;49.574;11.170;2023-02-28T11:24:23;5.43;;;3.83;;
13408;SDS011;6775;49.574;11.170;2023-02-28T11:26:54;4.93;;;4.43;;
13408;SDS011;6775;49.574;11.170;2023-02-28T11:29:24;4.60;;;4.00;;
13408;SDS011;6775;49.574;11.170;2023-02-28T11:32:04;4.20;;;3.80;;
13408;SDS011;6775;49.574;11.170;2023-02-28T11:34:39;3.53;;;3.23;;
13408;SDS011;6775;49.574;11.170;2023-02-28T11:37:10;5.13;;;4.20;;
13408;SDS011;6775;49.574;11.170;2023-02-28T11:39:40;4.70;;;4.20;;
13408;SDS011;6775;49.574;11.170;2023-02-28T11:42:15;5.67;;;4.77;;
13408;SDS011;6775;49.574;11.170;2023-02-28T11:45:03;5.33;;;4.40;;
13408;SDS011;6775;49.574;11.170;2023-02-28T11:47:44;4.37;;;3.77;;
13408;SDS011;6775;49.574;11.170;2023-02-28T11:50:17;3.97;;;3.67;;
13408;SDS011;6775;49.574;11.170;2023-02-28T11:53:00;4.37;;;3.80;;
13408;SDS011;6775;49.574;11.170;2023-02-28T11:55:31;4.60;;;4.03;;
13408;SDS011;6775;49.574;11.170;2023-02-28T12:01:14;5.67;;;4.57;;
13408;SDS011;6775;49.574;11.170;2023-02-28T12:03:56;5.90;;;4.70;;
13408;SDS011;6775;49.574;11.170;2023-02-28T12:06:31;5.57;;;4.40;;
13408;SDS011;6775;49.574;11.170;2023-02-28T12:09:09;5.07;;;4.57;;
13408;SDS011;6775;49.574;11.170;2023-02-28T12:11:51;4.73;;;4.33;;
13408;SDS011;6775;49.574;11.170;2023-02-28T12:14:30;4.10;;;3.70;;
13408;SDS011;6775;49.574;11.170;2023-02-28T12:17:28;6.67;;;5.20;;
13408;SDS011;6775;49.574;11.170;2023-02-28T12:20:05;6.27;;;4.97;;
13408;SDS011;6775;49.574;11.170;2023-02-28T12:22:42;5.93;;;4.60;;
13408;SDS011;6775;49.574;11.170;2023-02-28T12:28:13;5.27;;;4.77;;
13408;SDS011;6775;49.574;11.170;2023-02-28T12:30:47;6.30;;;4.70;;
13408;SDS011;6775;49.574;11.170;2023-02-28T12:33:21;5.77;;;5.27;;
13408;SDS011;6775;49.574;11.170;2023-02-28T12:35:56;6.00;;;4.90;;
13408;SDS011;6775;49.574;11.170;2023-02-28T12:38:27;5.27;;;4.70;;
13408;SDS011;6775;49.574;11.170;2023-02-28T12:40:57;5.10;;;4.60;;
13408;SDS011;6775;49.574;11.170;2023-02-28T12:43:30;6.80;;;4.67;;
13408;SDS011;6775;49.574;11.170;2023-02-28T12:46:00;5.87;;;4.50;;
13408;SDS011;6775;49.574;11.170;2023-02-28T12:48:37;5.60;;;4.40;;
13408;SDS011;6775;49.574;11.170;2023-02-28T12:51:10;6.10;;;5.30;;
13408;SDS011;6775;49.574;11.170;2023-02-28T12:53:44;5.43;;;4.77;;
13408;SDS011;6775;49.574;11.170;2023-02-28T12:56:22;5.00;;;4.50;;
13408;SDS011;6775;49.574;11.170;2023-02-28T12:59:01;5.57;;;4.53;;
13408;SDS011;6775;49.574;11.170;2023-02-28T13:01:54;5.10;;;4.60;;
13408;SDS011;6775;49.574;11.170;2023-02-28T13:04:32;5.33;;;4.83;;
13408;SDS011;6775;49.574;11.170;2023-02-28T13:07:32;5.97;;;5.00;;
13408;SDS011;6775;49.574;11.170;2023-02-28T13:10:22;6.70;;;5.20;;
13408;SDS011;6775;49.574;11.170;2023-02-28T13:12:51;6.47;;;5.20;;
13408;SDS011;6775;49.574;11.170;2023-02-28T13:15:22;5.43;;;4.93;;
13408;SDS011;6775;49.574;11.170;2023-02-28T13:17:54;7.77;;;4.97;;
13408;SDS011;6775;49.574;11.170;2023-02-28T13:20:25;6.10;;;5.50;;
13408;SDS011;6775;49.574;11.170;2023-02-28T13:22:57;6.10;;;5.43;;
13408;SDS011;6775;49.574;11.170;2023-02-28T13:34:39;6.43;;;5.20;;
13408;SDS011;6775;49.574;11.170;2023-02-28T13:40:22;5.53;;;4.23;;
13408;SDS011;6775;49.574;11.170;2023-02-28T13:42:55;5.90;;;5.20;;
13408;SDS011;6775;49.574;11.170;2023-02-28T13:45:24;5.43;;;4.40;;
13408;SDS011;6775;49.574;11.170;2023-02-28T13:47:55;6.83;;;4.97;;
13408;SDS011;6775;49.574;11.170;2023-02-28T13:50:27;6.17;;;5.10;;
13408;SDS011;6775;49.574;11.170;2023-02-28T13:55:59;5.50;;;4.97;;
13408;SDS011;6775;49.574;11.170;2023-02-28T13:58:46;6.07;;;5.47;;
13408;SDS011;6775;49.574;11.170;2023-02-28T14:01:30;7.97;;;5.97;;
13408;SDS011;6775;49.574;11.170;2023-02-28T14:07:10;7.10;;;5.73;;
13408;SDS011;6775;49.574;11.170;2023-02-28T14:09:45;6.50;;;5.40;;
13408;SDS011;6775;49.574;11.170;2023-02-28T14:18:31;10.43;;;6.37;;
13408;SDS011;6775;49.574;11.170;2023-02-28T14:21:02;6.03;;;5.27;;
13408;SDS011;6775;49.574;11.170;2023-02-28T14:24:01;8.37;;;6.27;;
13408;SDS011;6775;49.574;11.170;2023-02-28T14:26:56;7.23;;;5.23;;
13408;SDS011;6775;49.574;11.170;2023-02-28T14:29:41;7.23;;;5.20;;
13408;SDS011;6775;49.574;11.170;2023-02-28T14:32:25;6.70;;;5.50;;
13408;SDS011;6775;49.574;11.170;2023-02-28T14:34:58;7.33;;;5.87;;
13408;SDS011;6775;49.574;11.170;2023-02-28T14:37:38;9.30;;;5.83;;
13408;SDS011;6775;49.574;11.170;2023-02-28T14:40:11;8.23;;;5.70;;
13408;SDS011;6775;49.574;11.170;2023-02-28T14:42:46;8.63;;;5.80;;
13408;SDS011;6775;49.574;11.170;2023-02-28T14:45:22;8.83;;;5.67;;
13408;SDS011;6775;49.574;11.170;2023-02-28T14:47:51;7.30;;;5.37;;
13408;SDS011;6775;49.574;11.170;2023-02-28T14:50:20;7.70;;;5.53;;
13408;SDS011;6775;49.574;11.170;2023-02-28T14:52:51;8.30;;;6.10;;
13408;SDS011;6775;49.574;11.170;2023-02-28T14:55:23;8.77;;;5.90;;
13408;SDS011;6775;49.574;11.170;2023-02-28T14:57:53;9.47;;;5.60;;
13408;SDS011;6775;49.574;11.170;2023-02-28T15:00:25;8.03;;;5.23;;
13408;SDS011;6775;49.574;11.170;2023-02-28T15:02:55;9.47;;;6.03;;
13408;SDS011;6775;49.574;11.170;2023-02-28T15:05:25;7.90;;;5.10;;
13408;SDS011;6775;49.574;11.170;2023-02-28T15:08:03;7.77;;;5.33;;
13408;SDS011;6775;49.574;11.170;2023-02-28T15:10:32;7.33;;;5.83;;
13408;SDS011;6775;49.574;11.170;2023-02-28T15:13:01;9.23;;;5.27;;
13408;SDS011;6775;49.574;11.170;2023-02-28T15:15:41;6.97;;;5.13;;
13408;SDS011;6775;49.574;11.170;2023-02-28T15:18:32;9.93;;;5.67;;
13408;SDS011;6775;49.574;11.170;2023-02-28T15:21:08;7.20;;;5.43;;
13408;SDS011;6775;49.574;11.170;2023-02-28T15:23:39;8.10;;;5.80;;
13408;SDS011;6775;49.574;11.170;2023-02-28T15:26:10;8.43;;;5.80;;
13408;SDS011;6775;49.574;11.170;2023-02-28T15:28:41;9.10;;;5.90;;
13408;SDS011;6775;49.574;11.170;2023-02-28T15:31:19;9.03;;;6.43;;
13408;SDS011;6775;49.574;11.170;2023-02-28T15:33:53;9.87;;;5.17;;
13408;SDS011;6775;49.574;11.170;2023-02-28T15:36:24;7.33;;;6.07;;
13408;SDS011;6775;49.574;11.170;2023-02-28T15:38:54;7.13;;;5.53;;
13408;SDS011;6775;49.574;11.170;2023-02-28T15:41:35;9.57;;;5.90;;
13408;SDS011;6775;49.574;11.170;2023-02-28T15:44:14;6.63;;;5.67;;
13408;SDS011;6775;49.574;11.170;2023-02-28T15:46:53;6.37;;;5.53;;
13408;SDS011;6775;49.574;11.170;2023-02-28T15:49:24;7.43;;;5.37;;
13408;SDS011;6775;49.574;11.170;2023-02-28T15:51:53;7.87;;;5.83;;
13408;SDS011;6775;49.574;11.170;2023-02-28T15:54:24;7.70;;;5.43;;
13408;SDS011;6775;49.574;11.170;2023-02-28T15:56:56;9.27;;;6.23;;
13408;SDS011;6775;49.574;11.170;2023-02-28T15:59:26;8.63;;;6.00;;